Time;durP1;ratioP1;P1;durP2;ratioP2;P2;SDS_P1;SDS_P2;PMS_P1;PMS_P2;Temp;Humidity;BMP_temperature;BMP_pressure;BME280_temperature;BME280_humidity;BME280_pressure;Samples;Min_cycle;Max_cycle;Signal;HPM_P1;HPM_P2
2022/08/22 00:02:01;;;;;;;12.05;4.63;;;16.80;99.90;;;;;;4982897;28;20046;-55
2022/08/22 00:04:31;;;;;;;12.23;4.63;;;16.80;99.90;;;;;;4984242;28;20504;-57
2022/08/22 00:07:09;;;;;;;9.35;4.85;;;16.80;99.90;;;;;;4984143;28;20037;-55
2022/08/22 00:09:55;;;;;;;9.52;4.15;;;16.80;99.90;;;;;;4971849;28;20057;-56
2022/08/22 00:12:28;;;;;;;10.15;3.85;;;16.80;99.90;;;;;;4983614;28;20074;-56
2022/08/22 00:15:10;;;;;;;10.95;4.18;;;16.80;99.90;;;;;;4982805;28;20575;-56
2022/08/22 00:17:39;;;;;;;10.20;4.53;;;16.80;99.90;;;;;;4982039;28;20050;-56
2022/08/22 00:20:08;;;;;;;10.73;5.22;;;16.80;99.90;;;;;;4979096;28;20168;-57
2022/08/22 00:23:07;;;;;;;8.60;4.30;;;16.80;99.90;;;;;;4981026;28;20168;-57
2022/08/22 00:25:41;;;;;;;7.88;4.63;;;16.70;99.90;;;;;;4976517;28;20056;-57
2022/08/22 00:28:20;;;;;;;10.32;4.40;;;16.70;99.90;;;;;;4982089;28;20489;-54
2022/08/22 00:31:21;;;;;;;10.70;4.40;;;16.70;99.90;;;;;;4985909;28;20046;-53
2022/08/22 00:33:49;;;;;;;10.18;4.00;;;16.60;99.90;;;;;;4965800;28;20108;-55
2022/08/22 00:36:30;;;;;;;10.30;4.30;;;16.60;99.90;;;;;;4985941;28;20400;-56
2022/08/22 00:39:10;;;;;;;8.32;3.92;;;16.60;99.90;;;;;;4985379;28;20282;-55
2022/08/22 00:41:45;;;;;;;7.47;4.57;;;16.70;99.90;;;;;;4988534;28;20052;-56
2022/08/22 00:44:11;;;;;;;11.15;4.13;;;16.60;99.90;;;;;;4964733;28;20245;-57
2022/08/22 00:46:57;;;;;;;10.20;3.72;;;16.60;99.90;;;;;;4986703;28;20153;-54
2022/08/22 00:49:49;;;;;;;9.00;4.45;;;16.60;99.90;;;;;;5001191;28;20046;-56
2022/08/22 00:52:34;;;;;;;8.43;3.88;;;16.60;99.90;;;;;;4991929;28;20428;-56
2022/08/22 00:55:06;;;;;;;8.50;3.42;;;16.70;99.90;;;;;;4990082;28;20038;-57
2022/08/22 00:58:16;;;;;;;8.95;4.40;;;16.60;99.90;;;;;;4987567;28;20034;-57
2022/08/22 01:00:50;;;;;;;10.45;3.78;;;16.70;99.90;;;;;;4953638;28;20050;-56
2022/08/22 01:03:43;;;;;;;6.38;3.72;;;16.60;99.90;;;;;;4988004;28;20097;-55
2022/08/22 01:06:24;;;;;;;9.05;3.78;;;16.60;99.90;;;;;;4992548;28;20077;-56
2022/08/22 01:09:10;;;;;;;10.48;4.32;;;16.60;99.90;;;;;;5004254;28;20030;-58
2022/08/22 01:11:55;;;;;;;7.18;4.10;;;16.60;99.90;;;;;;4998393;28;20054;-57
2022/08/22 01:14:45;;;;;;;8.77;3.70;;;16.60;99.90;;;;;;5001201;28;20275;-56
2022/08/22 01:17:13;;;;;;;9.07;4.60;;;16.50;99.90;;;;;;4984907;28;20041;-56
2022/08/22 01:20:00;;;;;;;9.18;4.53;;;16.40;99.90;;;;;;4986373;28;20041;-57
2022/08/22 01:22:44;;;;;;;10.18;4.35;;;16.40;99.90;;;;;;4982612;28;20085;-58
2022/08/22 01:25:31;;;;;;;14.90;5.40;;;16.40;99.90;;;;;;4985374;28;20042;-57
2022/08/22 01:28:37;;;;;;;10.40;5.00;;;16.40;99.90;;;;;;4982808;28;20081;-57
2022/08/22 01:31:22;;;;;;;13.48;5.03;;;16.30;99.90;;;;;;4982016;28;20046;-56
2022/08/22 01:34:06;;;;;;;9.57;4.25;;;16.20;99.90;;;;;;4983644;28;20050;-58
2022/08/22 01:37:04;;;;;;;11.18;5.18;;;16.10;99.90;;;;;;4990012;28;20069;-58
2022/08/22 01:39:58;;;;;;;13.32;5.25;;;16.10;99.90;;;;;;4993512;28;20221;-58
2022/08/22 01:42:52;;;;;;;8.43;4.93;;;16.10;99.90;;;;;;4991741;28;20046;-58
2022/08/22 01:45:36;;;;;;;9.70;4.50;;;16.10;99.90;;;;;;4982071;28;20041;-57
2022/08/22 01:48:25;;;;;;;;;;;16.00;99.90;;;;;;5007329;28;21176;-58
2022/08/22 01:50:55;;;;;;;7.40;4.47;;;15.90;99.90;;;;;;4978790;28;20039;-58
2022/08/22 01:53:38;;;;;;;10.32;4.65;;;15.90;99.90;;;;;;4998825;28;20052;-58
2022/08/22 01:56:16;;;;;;;8.82;5.05;;;15.90;99.90;;;;;;4984982;28;20038;-58
2022/08/22 01:59:03;;;;;;;7.78;3.95;;;15.90;99.90;;;;;;5002528;28;20921;-58
2022/08/22 02:01:44;;;;;;;14.60;5.72;;;15.90;99.90;;;;;;4990257;28;20058;-58
2022/08/22 02:04:46;;;;;;;10.18;4.57;;;15.90;99.90;;;;;;4980145;28;20129;-59
2022/08/22 02:07:23;;;;;;;10.50;5.32;;;15.80;99.90;;;;;;4942884;28;20062;-58
2022/08/22 02:09:52;;;;;;;8.60;4.88;;;15.80;99.90;;;;;;5003264;28;20056;-56
2022/08/22 02:12:18;;;;;;;8.75;3.92;;;15.70;99.90;;;;;;4998976;28;20525;-59
2022/08/22 02:15:09;;;;;;;10.68;5.25;;;15.70;99.90;;;;;;4990962;28;20042;-59
2022/08/22 02:17:49;;;;;;;8.40;4.60;;;15.60;99.90;;;;;;4980599;28;20042;-58
2022/08/22 02:20:40;;;;;;;7.90;4.55;;;15.60;99.90;;;;;;5000018;28;20041;-59
2022/08/22 02:23:21;;;;;;;6.43;4.10;;;15.50;99.90;;;;;;4998013;28;20030;-59
2022/08/22 02:25:46;;;;;;;9.63;4.18;;;15.50;99.90;;;;;;4997141;28;20069;-59
2022/08/22 02:28:21;;;;;;;9.32;4.85;;;15.40;99.90;;;;;;4993391;28;20069;-59
2022/08/22 02:30:53;;;;;;;6.05;3.90;;;15.40;99.90;;;;;;4990932;28;20519;-58
2022/08/22 02:33:25;;;;;;;10.45;5.13;;;15.40;99.90;;;;;;4995177;28;20493;-57
2022/08/22 02:36:00;;;;;;;12.25;5.20;;;15.40;99.90;;;;;;4996596;28;20064;-55
2022/08/22 02:38:38;;;;;;;8.35;5.50;;;15.30;99.90;;;;;;4992452;28;20401;-54
2022/08/22 02:41:17;;;;;;;9.93;5.10;;;15.30;99.90;;;;;;4994613;28;20461;-56
2022/08/22 02:43:58;;;;;;;9.98;5.28;;;15.30;99.90;;;;;;4974661;28;20804;-56
2022/08/22 02:47:07;;;;;;;7.97;4.43;;;15.30;99.90;;;;;;4997359;28;20037;-56
2022/08/22 02:50:06;;;;;;;13.02;5.50;;;15.30;99.90;;;;;;4983075;28;20124;-56
2022/08/22 02:52:54;;;;;;;9.07;5.30;;;15.20;99.90;;;;;;4986415;28;20484;-55
2022/08/22 02:55:31;;;;;;;6.82;4.25;;;15.20;99.90;;;;;;4984302;28;20075;-55
2022/08/22 02:58:10;;;;;;;10.50;5.40;;;15.10;99.90;;;;;;4969528;28;20135;-54
2022/08/22 03:00:45;;;;;;;8.10;5.57;;;15.10;99.90;;;;;;4978944;28;20037;-54
2022/08/22 03:03:27;;;;;;;9.07;5.45;;;15.10;99.90;;;;;;4983476;28;20268;-56
2022/08/22 03:05:59;;;;;;;8.48;5.53;;;15.10;99.90;;;;;;4992932;28;20448;-55
2022/08/22 03:08:31;;;;;;;8.65;5.15;;;15.10;99.90;;;;;;4986745;28;20038;-54
2022/08/22 03:11:18;;;;;;;10.13;5.80;;;15.00;99.90;;;;;;4975068;28;20477;-54
2022/08/22 03:14:06;;;;;;;9.50;6.07;;;15.00;99.90;;;;;;5001872;28;21221;-55
2022/08/22 03:16:57;;;;;;;10.95;6.43;;;15.00;99.90;;;;;;4985527;28;20137;-57
2022/08/22 03:19:41;;;;;;;8.27;5.05;;;15.00;99.90;;;;;;4989345;28;21287;-57
2022/08/22 03:22:25;;;;;;;;;;;15.00;99.90;;;;;;4989344;28;20416;-56
2022/08/22 03:25:36;;;;;;;12.55;6.07;;;14.90;99.90;;;;;;4979132;28;19921;-57
2022/08/22 03:28:12;;;;;;;7.45;5.78;;;14.90;99.90;;;;;;4983266;28;20133;-56
2022/08/22 03:30:55;;;;;;;8.63;5.50;;;14.80;99.90;;;;;;4983301;28;20035;-57
2022/08/22 03:33:24;;;;;;;11.32;6.10;;;14.80;99.90;;;;;;4970328;28;20046;-55
2022/08/22 03:36:02;;;;;;;7.57;5.10;;;14.80;99.90;;;;;;4988771;28;20049;-56
2022/08/22 03:38:34;;;;;;;6.82;4.88;;;14.80;99.90;;;;;;4965566;28;20089;-54
2022/08/22 03:41:11;;;;;;;7.97;4.95;;;14.80;99.90;;;;;;4984103;28;20138;-56
2022/08/22 03:43:55;;;;;;;4.85;3.88;;;14.80;99.90;;;;;;4984947;28;20049;-57
2022/08/22 03:46:34;;;;;;;7.27;4.87;;;14.70;99.90;;;;;;4986309;28;20037;-56
2022/08/22 03:49:30;;;;;;;7.82;4.80;;;14.70;99.90;;;;;;5000252;28;20042;-55
2022/08/22 03:52:04;;;;;;;7.07;5.43;;;14.70;99.90;;;;;;4982936;28;20130;-56
2022/08/22 03:54:39;;;;;;;9.88;5.47;;;14.70;99.90;;;;;;4986724;28;20087;-56
2022/08/22 03:57:37;;;;;;;8.27;5.25;;;14.60;99.90;;;;;;5000670;28;20038;-57
2022/08/22 04:00:10;;;;;;;7.03;6.15;;;14.60;99.90;;;;;;4966647;28;20062;-57
2022/08/22 04:03:07;;;;;;;8.23;5.43;;;14.50;99.90;;;;;;4977806;28;20054;-56
2022/08/22 04:05:58;;;;;;;7.55;6.22;;;14.50;99.90;;;;;;4982366;28;20057;-57
2022/08/22 04:09:11;;;;;;;6.95;6.25;;;14.50;99.90;;;;;;4984270;28;21323;-56
2022/08/22 04:12:14;;;;;;;6.88;6.18;;;14.50;99.90;;;;;;4984279;28;20050;-57
2022/08/22 04:15:05;;;;;;;5.57;4.95;;;14.40;99.90;;;;;;4990684;28;20046;-56
2022/08/22 04:17:59;;;;;;;5.15;4.32;;;14.40;99.90;;;;;;5002657;28;20053;-57
2022/08/22 04:20:43;;;;;;;5.30;4.80;;;14.40;99.90;;;;;;4981510;28;20136;-56
2022/08/22 04:23:17;;;;;;;5.22;4.43;;;14.40;99.90;;;;;;4966361;28;20093;-57
2022/08/22 04:25:54;;;;;;;5.82;5.22;;;14.40;99.90;;;;;;4994879;28;20548;-56
2022/08/22 04:28:36;;;;;;;5.45;4.82;;;14.40;99.90;;;;;;4988518;28;20488;-57
2022/08/22 04:31:11;;;;;;;5.28;4.68;;;14.40;99.90;;;;;;4984959;28;20050;-57
2022/08/22 04:33:51;;;;;;;6.15;4.55;;;14.40;99.90;;;;;;4985119;28;20061;-57
2022/08/22 04:36:25;;;;;;;6.57;4.47;;;14.40;99.90;;;;;;4987108;28;20496;-56
2022/08/22 04:38:51;;;;;;;;;;;14.40;99.90;;;;;;4989901;28;20457;-56
2022/08/22 04:41:52;;;;;;;5.38;3.10;;;14.30;99.90;;;;;;4992219;28;20011;-57
2022/08/22 04:44:42;;;;;;;7.30;3.70;;;14.30;99.90;;;;;;4991038;28;20050;-54
2022/08/22 04:47:17;;;;;;;7.80;5.07;;;14.30;99.90;;;;;;5002473;28;20050;-58
2022/08/22 04:49:57;;;;;;;10.68;4.75;;;14.20;99.90;;;;;;4985238;28;20046;-51
2022/08/22 04:52:25;;;;;;;14.63;7.50;;;14.40;99.90;;;;;;4997638;28;20034;-51
2022/08/22 04:55:16;;;;;;;12.82;7.22;;;14.40;99.90;;;;;;4986138;28;20038;-55
2022/08/22 05:00:21;;;;;;;7.38;6.30;;;14.40;99.90;;;;;;4967429;28;20066;-53
2022/08/22 05:02:55;;;;;;;59.72;9.43;;;14.50;99.90;;;;;;4962506;28;20050;-51
2022/08/22 05:05:25;;;;;;;32.13;7.40;;;14.50;99.90;;;;;;4982126;28;20065;-53
2022/08/22 05:07:58;;;;;;;8.18;6.65;;;14.50;99.90;;;;;;4976512;28;20050;-51
2022/08/22 05:10:35;;;;;;;11.50;8.18;;;14.40;99.90;;;;;;4963957;28;20529;-56
2022/08/22 05:13:06;;;;;;;8.00;6.25;;;14.40;99.90;;;;;;4965868;28;20071;-54
2022/08/22 05:15:46;;;;;;;7.40;6.32;;;14.50;99.90;;;;;;4964735;28;20046;-54
2022/08/22 05:18:23;;;;;;;8.50;5.97;;;14.50;99.90;;;;;;4963161;28;20113;-54
2022/08/22 05:20:51;;;;;;;7.05;5.93;;;14.60;99.90;;;;;;4964037;28;20046;-56
2022/08/22 05:23:25;;;;;;;10.05;7.07;;;14.60;99.90;;;;;;4967226;28;20108;-57
2022/08/22 05:25:55;;;;;;;11.23;8.98;;;14.70;99.90;;;;;;4979499;28;20192;-55
2022/08/22 05:28:30;;;;;;;7.65;6.43;;;14.70;99.90;;;;;;4959658;28;20377;-55
2022/08/22 05:30:56;;;;;;;7.85;7.05;;;14.70;99.90;;;;;;4964974;28;20039;-55
2022/08/22 05:33:35;;;;;;;11.43;7.32;;;14.80;99.90;;;;;;4970257;28;20038;-54
2022/08/22 05:36:12;;;;;;;9.55;7.03;;;14.90;99.90;;;;;;4950245;28;20133;-57
2022/08/22 05:38:47;;;;;;;8.52;7.10;;;14.90;99.90;;;;;;4952674;28;20078;-54
2022/08/22 05:41:22;;;;;;;8.18;5.75;;;15.00;99.90;;;;;;4965203;28;20050;-52
2022/08/22 05:43:50;;;;;;;5.47;4.20;;;15.10;99.90;;;;;;4965268;28;20046;-56
2022/08/22 05:46:21;;;;;;;4.90;4.28;;;15.10;99.90;;;;;;4979233;28;20464;-55
2022/08/22 05:49:18;;;;;;;7.78;4.30;;;15.20;99.90;;;;;;4965411;28;21306;-54
2022/08/22 05:52:22;;;;;;;6.90;5.45;;;15.30;99.90;;;;;;4966404;28;20626;-54
2022/08/22 05:54:52;;;;;;;5.97;4.27;;;15.40;99.90;;;;;;4979889;28;20417;-56
2022/08/22 05:57:21;;;;;;;5.18;4.40;;;15.50;99.90;;;;;;4974550;28;20290;-56
2022/08/22 05:59:57;;;;;;;5.88;4.25;;;15.50;99.90;;;;;;4980649;28;20166;-54
2022/08/22 06:02:47;;;;;;;7.80;5.35;;;15.60;99.90;;;;;;4973439;28;20047;-57
2022/08/22 06:05:17;;;;;;;8.45;5.10;;;15.70;99.90;;;;;;4979328;28;20050;-56
2022/08/22 06:07:47;;;;;;;5.57;4.57;;;15.80;99.90;;;;;;4981760;28;21122;-54
2022/08/22 06:10:45;;;;;;;7.32;4.32;;;15.90;99.90;;;;;;4976472;28;20057;-55
2022/08/22 06:13:33;;;;;;;10.40;4.60;;;15.90;99.90;;;;;;4963833;28;20058;-56
2022/08/22 06:16:29;;;;;;;5.07;4.43;;;16.10;99.90;;;;;;4967593;28;20117;-50
2022/08/22 06:18:56;;;;;;;10.48;4.82;;;16.20;99.90;;;;;;4968017;28;20324;-56
2022/08/22 06:21:31;;;;;;;7.38;4.88;;;16.20;99.90;;;;;;4955591;28;20069;-55
2022/08/22 06:23:59;;;;;;;13.80;5.97;;;16.30;99.90;;;;;;4968610;28;20038;-56
2022/08/22 06:26:30;;;;;;;8.15;5.30;;;16.40;99.90;;;;;;4977284;28;20473;-55
2022/08/22 06:28:59;;;;;;;15.23;5.35;;;16.50;99.90;;;;;;4972204;28;20105;-53
2022/08/22 06:31:33;;;;;;;11.27;4.95;;;16.50;99.90;;;;;;4964683;28;20038;-51
2022/08/22 06:33:58;;;;;;;;;;;16.50;99.90;;;;;;4972054;28;20035;-54
2022/08/22 06:36:31;;;;;;;6.63;3.60;;;16.60;99.90;;;;;;4964328;28;19924;-56
2022/08/22 06:39:13;;;;;;;12.63;6.35;;;16.60;99.90;;;;;;4978021;28;20116;-53
2022/08/22 06:42:01;;;;;;;9.35;6.80;;;16.60;99.90;;;;;;4973723;28;20129;-50
2022/08/22 06:44:36;;;;;;;18.77;7.72;;;16.70;99.90;;;;;;4946572;28;20042;-52
2022/08/22 06:47:06;;;;;;;15.25;7.80;;;16.70;99.90;;;;;;4974964;28;20269;-52
2022/08/22 06:49:34;;;;;;;14.00;7.47;;;16.80;99.90;;;;;;4967279;28;20370;-52
2022/08/22 06:52:13;;;;;;;8.27;5.43;;;16.80;99.90;;;;;;4978037;28;20043;-55
2022/08/22 06:54:45;;;;;;;15.23;8.25;;;16.80;99.90;;;;;;4964591;28;20054;-52
2022/08/22 06:57:53;;;;;;;12.43;7.95;;;16.90;99.90;;;;;;4971362;28;20046;-52
2022/08/22 07:00:19;;;;;;;15.05;7.47;;;16.90;99.90;;;;;;4972752;28;20042;-55
2022/08/22 07:03:10;;;;;;;20.05;10.98;;;16.90;99.90;;;;;;4966699;28;20053;-50
2022/08/22 07:05:39;;;;;;;12.82;7.28;;;16.90;99.90;;;;;;4953948;28;20074;-55
2022/08/22 07:08:10;;;;;;;14.70;9.15;;;17.00;99.90;;;;;;4975184;28;20051;-52
2022/08/22 07:10:40;;;;;;;10.45;8.68;;;17.00;99.90;;;;;;4973488;28;20133;-50
2022/08/22 07:13:18;;;;;;;18.83;9.05;;;17.00;99.90;;;;;;4979490;28;20226;-49
2022/08/22 07:15:53;;;;;;;11.73;7.55;;;17.00;99.90;;;;;;4969423;28;20148;-50
2022/08/22 07:18:23;;;;;;;9.48;7.00;;;17.00;99.90;;;;;;4987632;28;20436;-47
2022/08/22 07:20:53;;;;;;;15.27;8.48;;;17.10;99.90;;;;;;4969994;28;20100;-51
2022/08/22 07:23:33;;;;;;;15.80;8.70;;;17.20;99.90;;;;;;4961552;28;20051;-51
2022/08/22 07:26:17;;;;;;;11.60;6.90;;;17.20;99.90;;;;;;4970334;28;20569;-56
2022/08/22 07:29:18;;;;;;;12.15;7.65;;;17.20;99.90;;;;;;4968758;28;20088;-51
2022/08/22 07:32:11;;;;;;;14.65;10.25;;;17.20;99.90;;;;;;4962899;28;20188;-54
2022/08/22 07:35:07;;;;;;;21.30;10.15;;;17.20;99.90;;;;;;4972270;28;20474;-53
2022/08/22 07:37:46;;;;;;;10.98;7.55;;;17.20;99.90;;;;;;4961980;28;20052;-55
2022/08/22 07:40:38;;;;;;;16.08;9.57;;;17.20;99.90;;;;;;4965806;28;20552;-54
2022/08/22 07:43:31;;;;;;;17.35;9.38;;;17.30;99.90;;;;;;4963314;28;20404;-54
2022/08/22 07:46:17;;;;;;;15.20;9.10;;;17.30;99.90;;;;;;4970249;28;20043;-52
2022/08/22 07:48:52;;;;;;;12.70;7.90;;;17.50;99.90;;;;;;4964425;28;20046;-54
2022/08/22 07:51:43;;;;;;;15.55;8.10;;;17.60;99.90;;;;;;4978235;28;20038;-55
2022/08/22 07:54:15;;;;;;;15.85;7.90;;;17.80;99.90;;;;;;4983058;28;20117;-55
2022/08/22 07:57:02;;;;;;;14.30;8.07;;;18.10;99.90;;;;;;4983637;28;20042;-54
2022/08/22 07:59:32;;;;;;;16.55;8.50;;;18.30;99.90;;;;;;4963513;28;20060;-52
2022/08/22 08:01:59;;;;;;;12.63;7.20;;;18.50;99.90;;;;;;4978756;28;20077;-56
2022/08/22 08:04:32;;;;;;;13.88;6.75;;;18.70;99.90;;;;;;4961847;28;20050;-53
2022/08/22 08:07:00;;;;;;;13.73;7.50;;;18.80;99.90;;;;;;4977335;28;20081;-53
2022/08/22 08:09:33;;;;;;;11.43;6.15;;;18.90;99.90;;;;;;4990753;28;20058;-54
2022/08/22 08:12:02;;;;;;;13.70;5.75;;;19.10;99.90;;;;;;4982138;28;20038;-56
2022/08/22 08:14:29;;;;;;;15.05;5.57;;;19.30;99.90;;;;;;4950135;28;20066;-52
2022/08/22 08:17:13;;;;;;;13.45;6.38;;;19.40;99.90;;;;;;4974975;28;20522;-54
2022/08/22 08:19:42;;;;;;;27.17;7.00;;;19.50;99.90;;;;;;4981023;28;20046;-55
2022/08/22 08:22:13;;;;;;;13.48;5.60;;;19.80;99.90;;;;;;4981869;28;20413;-54
2022/08/22 08:24:41;;;;;;;26.65;6.63;;;20.20;99.90;;;;;;4982244;28;20053;-54
2022/08/22 08:30:14;;;;;;;13.32;4.82;;;20.20;99.90;;;;;;4971776;28;20051;-52
2022/08/22 08:32:41;;;;;;;9.35;4.55;;;20.50;99.90;;;;;;4979834;28;20122;-54
2022/08/22 08:35:22;;;;;;;11.82;4.15;;;20.60;99.90;;;;;;4978748;28;20051;-52
2022/08/22 08:38:01;;;;;;;14.73;6.30;;;20.60;99.90;;;;;;4971982;28;20497;-52
2022/08/22 08:40:30;;;;;;;11.13;5.53;;;20.80;99.90;;;;;;4969123;28;20225;-54
2022/08/22 08:43:26;;;;;;;12.02;3.58;;;21.10;99.90;;;;;;4978761;28;20073;-56
2022/08/22 08:46:13;;;;;;;12.93;4.20;;;21.40;99.90;;;;;;4968851;28;20156;-54
2022/08/22 08:49:00;;;;;;;10.25;4.22;;;21.80;99.90;;;;;;4960443;28;20074;-53
2022/08/22 08:51:54;;;;;;;27.02;4.80;;;21.70;99.90;;;;;;4961295;28;20345;-56
2022/08/22 08:55:05;;;;;;;11.50;3.42;;;21.60;99.90;;;;;;4977391;28;20169;-56
2022/08/22 08:58:10;;;;;;;9.93;3.58;;;21.60;99.90;;;;;;4969200;28;20038;-56
2022/08/22 09:00:44;;;;;;;9.15;3.80;;;21.70;99.90;;;;;;4969726;28;20642;-58
2022/08/22 09:03:56;;;;;;;12.50;3.35;;;21.70;99.90;;;;;;4990477;28;20046;-55
2022/08/22 09:06:33;;;;;;;10.85;3.20;;;21.60;99.90;;;;;;4968448;28;20057;-55
2022/08/22 09:09:34;;;;;;;9.10;3.80;;;21.60;99.90;;;;;;4984967;28;20129;-53
2022/08/22 09:12:31;;;;;;;11.13;2.85;;;21.70;99.90;;;;;;4978176;28;20038;-51
2022/08/22 09:15:39;;;;;;;12.15;3.50;;;21.80;99.90;;;;;;4982135;28;20050;-55
2022/08/22 09:18:23;;;;;;;8.43;2.25;;;21.90;99.90;;;;;;4986942;28;20038;-54
2022/08/22 09:21:33;;;;;;;10.07;2.63;;;21.70;99.90;;;;;;4986996;28;20042;-56
2022/08/22 09:24:23;;;;;;;7.53;3.35;;;21.90;99.90;;;;;;4973950;28;20097;-54
2022/08/22 09:27:01;;;;;;;11.48;4.10;;;22.10;99.90;;;;;;4976397;28;21153;-56
2022/08/22 09:29:42;;;;;;;10.48;3.17;;;22.30;99.90;;;;;;4990047;28;20117;-54
2022/08/22 09:32:47;;;;;;;18.38;3.90;;;22.50;99.90;;;;;;4965820;28;20502;-60
2022/08/22 09:35:16;;;;;;;7.60;3.17;;;22.60;99.90;;;;;;4951748;28;20090;-53
2022/08/22 09:38:06;;;;;;;9.55;3.35;;;22.60;99.90;;;;;;4955598;28;20077;-56
2022/08/22 09:40:46;;;;;;;7.88;3.22;;;22.50;99.90;;;;;;4971232;28;20109;-52
2022/08/22 09:43:19;;;;;;;10.07;2.75;;;22.80;99.90;;;;;;4966500;28;20042;-56
2022/08/22 09:45:53;;;;;;;9.48;3.13;;;22.80;99.90;;;;;;4965719;28;20296;-55
2022/08/22 09:48:33;;;;;;;10.23;2.60;;;22.70;99.90;;;;;;4971990;28;20995;-53
2022/08/22 09:51:29;;;;;;;8.75;2.35;;;22.70;99.90;;;;;;4973124;28;20042;-53
2022/08/22 09:54:13;;;;;;;6.53;2.35;;;22.70;99.30;;;;;;4984855;28;20047;-55
2022/08/22 09:56:45;;;;;;;11.13;2.92;;;22.90;99.90;;;;;;4944093;28;20043;-55
2022/08/22 09:59:30;;;;;;;13.70;3.15;;;23.00;99.90;;;;;;4977584;28;20825;-57
2022/08/22 10:02:30;;;;;;;9.80;3.10;;;23.00;99.20;;;;;;4970284;28;20073;-53
2022/08/22 10:05:14;;;;;;;7.20;2.40;;;23.10;98.80;;;;;;4979367;28;20050;-54
2022/08/22 10:07:59;;;;;;;5.40;2.10;;;23.30;98.00;;;;;;4962421;28;20053;-54
2022/08/22 10:10:47;;;;;;;8.90;3.08;;;23.30;98.40;;;;;;4978984;28;20050;-57
2022/08/22 10:13:15;;;;;;;7.32;2.22;;;23.50;98.40;;;;;;4969850;28;20514;-54
2022/08/22 10:16:00;;;;;;;9.55;2.33;;;23.50;98.10;;;;;;4978446;28;20030;-54
2022/08/22 10:18:42;;;;;;;4.78;1.58;;;23.50;96.80;;;;;;4964805;28;20052;-54
2022/08/22 10:21:20;;;;;;;8.93;3.10;;;23.60;97.50;;;;;;4976618;28;20177;-55
2022/08/22 10:24:03;;;;;;;7.20;2.28;;;23.70;97.40;;;;;;4961960;28;20105;-58
2022/08/22 10:26:36;;;;;;;7.65;2.97;;;23.70;96.60;;;;;;4970080;28;20747;-54
2022/08/22 10:29:25;;;;;;;8.48;2.35;;;23.80;96.50;;;;;;4967696;28;20043;-55
2022/08/22 10:32:04;;;;;;;7.65;2.80;;;23.80;96.00;;;;;;4988077;28;20125;-54
2022/08/22 10:34:35;;;;;;;8.32;2.03;;;23.70;95.70;;;;;;4958896;28;20073;-54
2022/08/22 10:37:59;;;;;;;131.25;10.70;;;23.80;96.00;;;;;;4970285;28;20046;-54
2022/08/22 10:40:38;;;;;;;42.92;4.30;;;24.00;95.90;;;;;;4950176;28;20042;-53
2022/08/22 10:43:18;;;;;;;7.50;1.88;;;24.10;95.80;;;;;;4958145;28;20054;-57
2022/08/22 10:45:47;;;;;;;75.60;11.27;;;24.10;94.60;;;;;;4972592;28;20418;-55
2022/08/22 10:48:27;;;;;;;15.73;3.55;;;24.20;94.60;;;;;;4973794;28;20050;-54
2022/08/22 10:51:04;;;;;;;39.17;5.13;;;24.60;94.50;;;;;;4978538;28;20100;-57
2022/08/22 10:53:56;;;;;;;63.88;5.93;;;24.70;94.00;;;;;;4971943;28;20042;-54
2022/08/22 10:56:30;;;;;;;22.90;3.47;;;24.80;95.10;;;;;;4971387;28;20047;-54
2022/08/22 10:59:04;;;;;;;10.88;2.45;;;25.20;95.50;;;;;;4955260;28;20097;-57
2022/08/22 11:01:38;;;;;;;8.10;2.58;;;25.40;94.80;;;;;;5019175;28;20053;-58
2022/08/22 11:04:58;;;;;;;35.88;5.72;;;25.50;95.10;;;;;;5013686;28;20038;-57
2022/08/22 11:07:39;;;;;;;123.93;10.00;;;25.90;94.40;;;;;;4968959;28;20128;-60
2022/08/22 11:10:28;;;;;;;31.05;3.80;;;26.20;94.30;;;;;;4961245;28;20046;-63
2022/08/22 11:13:19;;;;;;;7.85;2.60;;;26.30;94.10;;;;;;4989616;28;20510;-64
2022/08/22 11:16:06;;;;;;;8.60;2.58;;;26.30;93.40;;;;;;5014493;28;20056;-62
2022/08/22 11:18:40;;;;;;;124.18;9.52;;;26.20;93.70;;;;;;5014949;28;20056;-59
2022/08/22 11:21:29;;;;;;;16.95;3.00;;;26.30;93.40;;;;;;5008035;28;20076;-59
2022/08/22 11:24:13;;;;;;;121.28;10.45;;;26.30;94.00;;;;;;5007434;28;20047;-59
2022/08/22 11:26:38;;;;;;;146.73;13.50;;;26.40;93.50;;;;;;5016622;28;20439;-59
2022/08/22 11:29:16;;;;;;;6.85;2.33;;;26.80;93.40;;;;;;5009957;28;20103;-59
2022/08/22 11:31:59;;;;;;;10.20;2.20;;;26.80;92.40;;;;;;4993700;28;20049;-56
2022/08/22 11:34:44;;;;;;;43.67;4.03;;;26.40;92.50;;;;;;5011208;28;20041;-59
2022/08/22 11:37:22;;;;;;;9.30;2.58;;;26.10;91.70;;;;;;5011054;28;20173;-59
2022/08/22 11:40:13;;;;;;;9.48;2.80;;;25.90;92.70;;;;;;5017482;28;20044;-59
2022/08/22 11:43:03;;;;;;;7.88;2.35;;;25.80;92.30;;;;;;5002002;28;20637;-59
2022/08/22 11:45:36;;;;;;;5.95;2.20;;;25.80;92.40;;;;;;5017073;28;20060;-59
2022/08/22 11:48:05;;;;;;;;;;;25.70;92.60;;;;;;5011060;28;20045;-62
2022/08/22 11:50:35;;;;;;;7.13;2.00;;;25.50;91.80;;;;;;5016284;28;19917;-60
2022/08/22 11:53:42;;;;;;;6.07;2.70;;;25.30;93.30;;;;;;5019035;28;20040;-59
2022/08/22 11:56:26;;;;;;;7.57;2.60;;;25.20;92.50;;;;;;5011711;28;20107;-60
2022/08/22 11:59:16;;;;;;;9.48;2.78;;;25.10;93.10;;;;;;5015266;28;20241;-61
2022/08/22 12:01:51;;;;;;;10.80;3.03;;;25.20;92.90;;;;;;5011234;28;20046;-58
2022/08/22 12:04:32;;;;;;;8.98;2.40;;;25.40;91.90;;;;;;4999385;28;20500;-59
2022/08/22 12:07:26;;;;;;;6.20;2.30;;;25.40;92.70;;;;;;5018385;28;20041;-59
2022/08/22 12:10:14;;;;;;;7.03;2.50;;;25.60;92.10;;;;;;5016129;28;20033;-59
2022/08/22 12:12:47;;;;;;;13.52;3.15;;;25.80;91.30;;;;;;5013201;28;20045;-62
2022/08/22 12:15:30;;;;;;;6.00;2.03;;;25.40;91.50;;;;;;5021348;28;20550;-59
2022/08/22 12:18:33;;;;;;;8.13;2.42;;;25.10;91.50;;;;;;5000732;28;20253;-59
2022/08/22 12:21:23;;;;;;;10.55;2.85;;;24.90;91.70;;;;;;5019883;28;20053;-59
2022/08/22 12:24:08;;;;;;;7.30;2.50;;;25.00;92.40;;;;;;5016997;28;20551;-60
2022/08/22 12:26:43;;;;;;;7.72;2.25;;;24.90;92.60;;;;;;5013778;28;20044;-60
2022/08/22 12:29:26;;;;;;;8.65;2.40;;;24.90;92.50;;;;;;4997673;28;20550;-60
2022/08/22 12:32:32;;;;;;;6.65;2.20;;;25.10;92.20;;;;;;5025943;28;20496;-60
2022/08/22 12:35:19;;;;;;;6.00;2.53;;;25.40;92.30;;;;;;5019383;28;20033;-59
2022/08/22 12:37:54;;;;;;;9.15;2.45;;;25.70;91.80;;;;;;5018837;28;20084;-60
2022/08/22 12:40:30;;;;;;;6.60;2.22;;;25.80;91.30;;;;;;5033008;28;20111;-59
2022/08/22 12:43:19;;;;;;;7.05;2.67;;;25.80;91.50;;;;;;5019488;28;20136;-59
2022/08/22 12:45:57;;;;;;;10.35;2.33;;;25.70;91.10;;;;;;5015216;28;20064;-58
2022/08/22 12:48:58;;;;;;;8.57;2.72;;;25.50;91.70;;;;;;5013397;28;20428;-58
2022/08/22 12:51:49;;;;;;;7.03;2.70;;;25.40;91.40;;;;;;5016931;28;20052;-60
2022/08/22 12:54:56;;;;;;;5.68;2.17;;;25.40;91.70;;;;;;5011407;28;20050;-59
2022/08/22 12:57:39;;;;;;;13.13;2.75;;;25.40;91.60;;;;;;4987822;28;20159;-60
2022/08/22 13:00:20;;;;;;;10.85;2.38;;;25.10;91.40;;;;;;5013789;28;20045;-60
2022/08/22 13:02:51;;;;;;;7.47;2.47;;;25.10;92.10;;;;;;4984406;28;20037;-60
2022/08/22 13:05:24;;;;;;;7.68;2.40;;;25.50;92.40;;;;;;5012777;28;20045;-60
2022/08/22 13:08:00;;;;;;;11.10;2.78;;;25.70;92.40;;;;;;5036204;28;20099;-60
2022/08/22 13:10:44;;;;;;;15.18;3.10;;;26.00;92.10;;;;;;5017474;28;20073;-59
2022/08/22 13:13:35;;;;;;;6.65;2.85;;;26.00;90.90;;;;;;5014692;28;20339;-61
2022/08/22 13:16:07;;;;;;;10.60;2.47;;;25.60;91.00;;;;;;5018880;28;20125;-60
2022/08/22 13:18:40;;;;;;;7.43;2.55;;;25.70;91.70;;;;;;5026947;28;20445;-59
2022/08/22 13:21:10;;;;;;;146.77;15.77;;;25.60;91.40;;;;;;5013499;28;20045;-58
2022/08/22 13:23:45;;;;;;;47.08;5.75;;;25.40;92.10;;;;;;5018428;28;20145;-59
2022/08/22 13:26:18;;;;;;;25.00;2.97;;;25.40;92.00;;;;;;5016021;28;20041;-60
2022/08/22 13:28:59;;;;;;;13.13;3.08;;;25.10;91.60;;;;;;5015138;28;20077;-60
2022/08/22 13:31:31;;;;;;;16.70;3.17;;;25.00;91.80;;;;;;5002890;28;20447;-59
2022/08/22 13:34:36;;;;;;;44.40;4.75;;;24.80;91.70;;;;;;5000855;28;20045;-62
2022/08/22 13:37:03;;;;;;;20.33;3.35;;;24.60;92.00;;;;;;4996253;28;20062;-57
2022/08/22 13:39:37;;;;;;;13.32;3.17;;;24.60;92.60;;;;;;5006674;28;20469;-61
2022/08/22 13:42:05;;;;;;;24.52;3.05;;;24.60;92.40;;;;;;5021749;28;20033;-59
2022/08/22 13:44:37;;;;;;;11.13;2.63;;;24.40;92.30;;;;;;5016741;28;20057;-57
2022/08/22 13:47:10;;;;;;;10.85;2.97;;;24.40;92.60;;;;;;5015697;28;20064;-59
2022/08/22 13:49:50;;;;;;;35.58;4.40;;;24.40;92.90;;;;;;5004067;28;20061;-58
2022/08/22 13:52:36;;;;;;;21.98;3.38;;;24.50;93.10;;;;;;4996759;28;20130;-59
2022/08/22 13:55:20;;;;;;;16.30;3.05;;;24.80;92.70;;;;;;4994656;28;20034;-60
2022/08/22 13:58:12;;;;;;;10.50;3.28;;;25.00;92.70;;;;;;5018271;28;20485;-59
2022/08/22 14:00:59;;;;;;;9.57;2.58;;;25.10;92.20;;;;;;5004702;28;20041;-59
2022/08/22 14:03:38;;;;;;;9.30;2.90;;;25.10;92.10;;;;;;5003903;28;20033;-60